createdAt,value
2018-04-11T00:00:07.871Z,10.2
2018-04-11T00:01:09.523Z,10.3
2018-04-11T00:02:11.170Z,10.2
2018-04-11T00:03:12.820Z,10.1
2018-04-11T00:04:14.482Z,10.1
2018-04-11T00:05:16.121Z,10.1
2018-04-11T00:06:17.783Z,10.0
2018-04-11T00:07:19.484Z,10.0
2018-04-11T00:08:21.106Z,10.0
2018-04-11T00:09:22.761Z,10.0
2018-04-11T00:10:24.420Z,9.9
2018-04-11T00:11:26.077Z,9.9
2018-04-11T00:12:27.737Z,9.8
2018-04-11T00:13:29.384Z,9.6
2018-04-11T00:14:31.032Z,9.7
2018-04-11T00:15:32.682Z,9.7
2018-04-11T00:16:34.337Z,9.7
2018-04-11T00:17:35.985Z,9.6
2018-04-11T00:18:37.634Z,9.5
2018-04-11T00:19:39.284Z,9.5
2018-04-11T00:20:40.931Z,9.5
2018-04-11T00:21:42.590Z,9.3
2018-04-11T00:22:44.249Z,9.2
2018-04-11T00:23:45.900Z,9.2
2018-04-11T00:24:47.567Z,9.2
2018-04-11T00:25:50.163Z,9.1
2018-04-11T00:26:51.803Z,9.3
2018-04-11T00:27:53.469Z,9.1
2018-04-11T00:28:55.123Z,9.2
2018-04-11T00:29:56.767Z,9.1
2018-04-11T00:30:58.429Z,9.2
2018-04-11T00:32:00.066Z,9.2
2018-04-11T00:33:01.723Z,9.2
2018-04-11T00:34:03.375Z,9.2
2018-04-11T00:35:05.029Z,9.0
2018-04-11T00:36:06.675Z,9.0
2018-04-11T00:37:08.326Z,9.1
2018-04-11T00:38:09.981Z,9.2
2018-04-11T00:39:11.633Z,9.1
2018-04-11T00:40:13.288Z,9.2
2018-04-11T00:41:14.935Z,9.0
2018-04-11T00:42:16.596Z,9.0
2018-04-11T00:43:18.252Z,8.9
2018-04-11T00:44:19.904Z,8.9
2018-04-11T00:45:21.552Z,8.9
2018-04-11T00:46:23.210Z,8.9
2018-04-11T00:47:24.857Z,8.8
2018-04-11T00:48:26.496Z,8.8
2018-04-11T00:49:28.147Z,8.9
2018-04-11T00:50:29.796Z,9.0
2018-04-11T00:51:31.446Z,9.0
2018-04-11T00:52:33.091Z,9.0
2018-04-11T00:53:34.743Z,9.1
2018-04-11T00:54:36.395Z,9.1
2018-04-11T00:55:38.037Z,9.0
2018-04-11T00:56:39.704Z,8.9
2018-04-11T00:57:41.350Z,8.9
2018-04-11T00:58:43.000Z,8.8
2018-04-11T00:59:44.660Z,8.8
2018-04-11T01:00:46.300Z,8.8
2018-04-11T01:01:47.981Z,8.8
2018-04-11T01:02:49.637Z,8.8
2018-04-11T01:03:51.281Z,8.9
2018-04-11T01:04:52.937Z,8.9
2018-04-11T01:05:54.591Z,9.0
2018-04-11T01:06:56.231Z,9.0
2018-04-11T01:07:57.893Z,9.1
2018-04-11T01:08:59.548Z,9.0
2018-04-11T01:10:01.195Z,9.2
2018-04-11T01:11:02.846Z,9.1
2018-04-11T01:12:04.501Z,9.3
2018-04-11T01:13:06.154Z,9.3
2018-04-11T01:14:07.800Z,9.2
2018-04-11T01:15:09.465Z,9.3
2018-04-11T01:16:11.131Z,9.2
2018-04-11T01:17:12.773Z,9.3
2018-04-11T01:18:14.416Z,9.2
2018-04-11T01:19:16.059Z,9.2
2018-04-11T01:20:17.712Z,9.1
2018-04-11T01:21:19.359Z,9.2
2018-04-11T01:22:21.014Z,9.2
2018-04-11T01:23:22.662Z,9.2
2018-04-11T01:24:24.325Z,9.2
2018-04-11T01:25:26.001Z,9.2
2018-04-11T01:26:27.644Z,9.2
2018-04-11T01:27:29.293Z,9.2
2018-04-11T01:28:30.938Z,9.1
2018-04-11T01:29:32.594Z,9.2
2018-04-11T01:30:34.247Z,9.3
2018-04-11T01:31:35.901Z,9.2
2018-04-11T01:32:37.545Z,9.3
2018-04-11T01:33:39.189Z,9.3
2018-04-11T01:34:40.842Z,9.4
2018-04-11T01:35:42.495Z,9.4
2018-04-11T01:36:44.142Z,9.3
2018-04-11T01:37:45.793Z,9.2
2018-04-11T01:38:47.479Z,9.3
2018-04-11T01:39:49.132Z,9.2
2018-04-11T01:40:50.787Z,9.1
2018-04-11T01:41:52.437Z,9.3
2018-04-11T01:42:54.082Z,9.2
2018-04-11T01:43:55.744Z,9.3
2018-04-11T01:44:57.398Z,9.4
2018-04-11T01:45:59.050Z,9.2
2018-04-11T01:47:00.697Z,9.2
2018-04-11T01:48:02.352Z,9.2
2018-04-11T01:49:04.007Z,9.3
2018-04-11T01:50:05.668Z,9.2
2018-04-11T01:51:07.316Z,9.4
2018-04-11T01:52:08.972Z,9.4
2018-04-11T01:53:10.627Z,9.4
2018-04-11T01:54:12.284Z,9.4
2018-04-11T01:55:13.933Z,9.5
2018-04-11T02:01:28.309Z,9.5
2018-04-11T02:02:29.958Z,9.5
2018-04-11T02:04:21.918Z,9.5
2018-04-11T02:05:23.562Z,9.6
2018-04-11T02:07:15.445Z,9.6
2018-04-11T02:08:17.094Z,9.7
2018-04-11T02:09:18.747Z,9.7
2018-04-11T02:10:20.390Z,9.8
2018-04-11T02:11:22.044Z,9.7
2018-04-11T02:12:23.694Z,9.7
2018-04-11T02:13:25.346Z,9.6
2018-04-11T02:14:26.994Z,9.7
2018-04-11T02:15:28.650Z,9.7
2018-04-11T02:16:30.294Z,9.7
2018-04-11T02:17:31.955Z,9.6
2018-04-11T02:18:33.609Z,9.8
2018-04-11T02:19:35.257Z,9.6
2018-04-11T02:20:36.923Z,9.6
2018-04-11T02:21:38.588Z,9.6
2018-04-11T02:22:40.240Z,9.6
2018-04-11T02:23:41.892Z,9.6
2018-04-11T02:24:43.535Z,9.6
2018-04-11T02:25:45.191Z,9.6
2018-04-11T02:26:46.839Z,9.5
2018-04-11T02:27:48.484Z,9.6
2018-04-11T02:28:50.141Z,9.6
2018-04-11T02:29:51.788Z,9.6
2018-04-11T02:30:53.436Z,9.6
2018-04-11T02:31:55.092Z,9.7
2018-04-11T02:32:56.770Z,9.6
2018-04-11T02:33:58.457Z,9.7
2018-04-11T02:35:00.113Z,9.9
2018-04-11T02:36:01.778Z,9.8
2018-04-11T02:37:03.431Z,9.8
2018-04-11T02:38:05.087Z,9.9
2018-04-11T02:39:06.756Z,9.9
2018-04-11T02:40:08.410Z,9.9
2018-04-11T02:41:10.061Z,9.8
2018-04-11T02:42:11.723Z,9.7
2018-04-11T02:43:13.368Z,9.8
2018-04-11T02:44:15.039Z,9.6
2018-04-11T02:45:16.685Z,9.6
2018-04-11T02:46:18.332Z,9.6
2018-04-11T02:47:19.987Z,9.7
2018-04-11T02:48:21.652Z,9.7
2018-04-11T02:49:23.309Z,9.8
2018-04-11T02:50:24.968Z,9.7
2018-04-11T02:51:26.609Z,9.7
2018-04-11T02:52:28.266Z,9.6
2018-04-11T02:53:29.915Z,9.6
2018-04-11T02:54:31.574Z,9.7
2018-04-11T02:55:33.229Z,9.7
2018-04-11T02:56:34.896Z,9.6
2018-04-11T02:57:36.539Z,9.5
2018-04-11T02:58:38.191Z,9.4
2018-04-11T02:59:39.844Z,9.5
2018-04-11T03:00:41.484Z,9.5
2018-04-11T03:01:43.143Z,9.5
2018-04-11T03:02:44.797Z,9.4
2018-04-11T03:03:46.454Z,9.3
2018-04-11T03:04:48.120Z,9.1
2018-04-11T03:05:49.778Z,9.2
2018-04-11T03:06:51.425Z,9.2
2018-04-11T03:07:53.072Z,9.0
2018-04-11T03:08:54.731Z,8.9
2018-04-11T03:09:56.378Z,9.0
2018-04-11T03:10:58.031Z,8.9
2018-04-11T03:11:59.687Z,8.6
2018-04-11T03:13:01.336Z,8.6
2018-04-11T03:14:02.985Z,8.6
2018-04-11T03:15:04.643Z,8.6
2018-04-11T03:16:06.288Z,8.6
2018-04-11T03:17:07.937Z,8.5
2018-04-11T03:18:09.590Z,8.4
2018-04-11T03:19:11.248Z,8.5
2018-04-11T03:20:12.909Z,8.7
2018-04-11T03:21:14.556Z,8.6
2018-04-11T03:22:16.202Z,8.6
2018-04-11T03:23:17.862Z,8.3
2018-04-11T03:24:19.508Z,8.4
2018-04-11T03:25:21.156Z,8.2
2018-04-11T03:26:22.808Z,8.5
2018-04-11T03:27:24.463Z,8.5
2018-04-11T03:28:26.112Z,8.6
2018-04-11T03:29:27.767Z,8.5
2018-04-11T03:30:29.414Z,8.5
2018-04-11T03:31:31.060Z,8.4
2018-04-11T03:32:32.710Z,8.4
2018-04-11T03:33:34.407Z,8.2
2018-04-11T03:34:36.020Z,8.2
2018-04-11T03:35:37.667Z,8.1
2018-04-11T03:36:39.316Z,8.0
2018-04-11T03:37:40.976Z,8.3
2018-04-11T03:38:42.623Z,8.4
2018-04-11T03:39:44.282Z,8.3
2018-04-11T03:40:45.935Z,8.0
2018-04-11T03:41:47.603Z,8.1
2018-04-11T03:42:49.251Z,8.2
2018-04-11T03:43:50.911Z,8.1
2018-04-11T03:44:52.567Z,8.0
2018-04-11T03:45:54.216Z,8.0
2018-04-11T03:46:55.867Z,7.9
2018-04-11T03:47:57.524Z,8.1
2018-04-11T03:48:59.167Z,8.0
2018-04-11T03:50:00.825Z,8.0
2018-04-11T03:51:02.477Z,8.0
2018-04-11T03:52:04.119Z,8.0
2018-04-11T03:53:05.771Z,8.0
2018-04-11T03:54:07.429Z,8.1
2018-04-11T03:55:09.078Z,8.2
2018-04-11T03:56:10.761Z,8.2
2018-04-11T03:57:12.412Z,8.2
2018-04-11T03:58:14.065Z,8.3
2018-04-11T03:59:15.712Z,8.4
2018-04-11T04:00:17.388Z,8.4
2018-04-11T04:01:19.117Z,8.4
2018-04-11T04:02:20.758Z,8.5
2018-04-11T04:03:22.413Z,8.4
2018-04-11T04:04:24.062Z,8.4
2018-04-11T04:05:25.710Z,8.3
2018-04-11T04:06:27.362Z,8.5
2018-04-11T04:07:29.022Z,8.4
2018-04-11T04:08:30.674Z,8.4
2018-04-11T04:09:32.350Z,8.4
2018-04-11T04:10:34.009Z,8.3
2018-04-11T04:11:35.655Z,8.4
2018-04-11T04:12:37.303Z,8.4
2018-04-11T04:13:38.959Z,8.4
2018-04-11T04:14:40.621Z,8.3
2018-04-11T04:15:42.278Z,8.4
2018-04-11T04:16:44.219Z,8.3
2018-04-11T04:17:45.916Z,8.3
2018-04-11T04:18:47.592Z,8.3
2018-04-11T04:19:49.280Z,8.3
2018-04-11T04:20:50.881Z,8.2
2018-04-11T04:21:52.539Z,8.4
2018-04-11T04:22:54.213Z,8.4
2018-04-11T04:23:55.871Z,8.4
2018-04-11T04:24:57.522Z,8.5
2018-04-11T04:25:59.175Z,8.4
2018-04-11T04:27:00.826Z,8.3
2018-04-11T04:28:02.497Z,8.2
2018-04-11T04:29:04.146Z,8.2
2018-04-11T04:30:05.805Z,8.3
2018-04-11T04:31:07.466Z,8.4
2018-04-11T04:32:09.117Z,8.3
2018-04-11T04:33:10.771Z,8.5
2018-04-11T04:34:12.443Z,8.6
2018-04-11T04:35:14.104Z,8.4
2018-04-11T04:36:15.750Z,8.5
2018-04-11T04:37:17.416Z,8.5
2018-04-11T04:38:19.064Z,8.5
2018-04-11T04:39:20.715Z,8.5
2018-04-11T04:40:22.377Z,8.4
2018-04-11T04:41:24.030Z,8.4
2018-04-11T04:42:25.686Z,8.4
2018-04-11T04:43:27.339Z,8.4
2018-04-11T04:44:28.995Z,8.4
2018-04-11T04:45:30.653Z,8.4
2018-04-11T04:46:32.311Z,8.5
2018-04-11T04:47:33.968Z,8.5
2018-04-11T04:48:35.627Z,8.4
2018-04-11T04:49:37.275Z,8.4
2018-04-11T04:50:38.934Z,8.4
2018-04-11T04:51:40.599Z,8.3
2018-04-11T04:52:42.255Z,8.2
2018-04-11T04:53:43.932Z,8.1
2018-04-11T04:54:45.582Z,8.3
2018-04-11T04:55:47.260Z,8.4
2018-04-11T04:56:48.919Z,8.5
2018-04-11T04:57:50.574Z,8.4
2018-04-11T04:58:52.229Z,8.4
2018-04-11T04:59:53.916Z,8.4
2018-04-11T05:00:55.565Z,8.5
2018-04-11T05:01:57.245Z,8.5
2018-04-11T05:02:58.902Z,8.6
2018-04-11T05:04:00.567Z,8.5
2018-04-11T05:05:02.211Z,8.6
2018-04-11T05:06:03.878Z,8.5
2018-04-11T05:07:07.211Z,8.5
2018-04-11T05:08:09.719Z,8.5
2018-04-11T05:09:15.025Z,8.5
2018-04-11T05:10:16.686Z,8.6
2018-04-11T05:11:18.368Z,8.5
2018-04-11T05:12:20.025Z,8.5
2018-04-11T05:13:21.681Z,8.7
2018-04-11T05:14:23.350Z,8.7
2018-04-11T05:15:25.009Z,8.7
2018-04-11T05:16:26.660Z,8.7
2018-04-11T05:17:28.321Z,8.7
2018-04-11T05:18:29.977Z,8.7
2018-04-11T05:19:31.644Z,8.7
2018-04-11T05:20:33.297Z,8.9
2018-04-11T05:21:34.954Z,8.9
2018-04-11T05:22:37.037Z,9.0
2018-04-11T05:23:38.682Z,8.9
2018-04-11T05:24:40.351Z,8.9
2018-04-11T05:25:42.005Z,9.0
2018-04-11T05:26:43.664Z,9.0
2018-04-11T05:27:45.319Z,9.2
2018-04-11T05:28:47.024Z,9.1
2018-04-11T05:29:48.659Z,9.1
2018-04-11T05:30:50.340Z,9.1
2018-04-11T05:31:52.130Z,9.2
2018-04-11T05:32:53.786Z,9.2
2018-04-11T05:33:55.437Z,9.2
2018-04-11T05:34:57.105Z,9.2
2018-04-11T05:35:58.766Z,9.3
2018-04-11T05:37:00.419Z,9.1
2018-04-11T05:38:02.103Z,9.2
2018-04-11T05:39:03.746Z,9.4
2018-04-11T05:40:05.419Z,9.2
2018-04-11T05:41:07.062Z,9.3
2018-04-11T05:42:08.719Z,9.4
2018-04-11T05:43:10.373Z,9.3
2018-04-11T05:44:12.035Z,9.4
2018-04-11T05:45:13.687Z,9.3
2018-04-11T05:46:15.335Z,9.4
2018-04-11T05:47:16.999Z,9.5
2018-04-11T05:48:18.661Z,9.5
2018-04-11T05:49:20.320Z,9.4
2018-04-11T05:50:21.973Z,9.6
2018-04-11T05:51:23.626Z,9.5
2018-04-11T05:52:25.284Z,9.5
2018-04-11T05:53:26.995Z,9.5
2018-04-11T05:54:28.606Z,9.5
2018-04-11T06:01:02.396Z,9.7
2018-04-11T06:02:04.052Z,9.7
2018-04-11T06:03:05.724Z,9.8
2018-04-11T06:04:07.398Z,9.8
2018-04-11T06:05:09.062Z,9.9
2018-04-11T06:06:10.714Z,9.9
2018-04-11T06:07:12.371Z,9.9
2018-04-11T06:08:14.030Z,9.8
2018-04-11T06:09:15.679Z,9.9
2018-04-11T06:10:17.331Z,9.9
2018-04-11T06:11:18.989Z,9.9
2018-04-11T06:12:20.661Z,10.0
2018-04-11T06:13:22.324Z,9.9
2018-04-11T06:14:24.020Z,10.0
2018-04-11T06:15:25.686Z,10.0
2018-04-11T06:16:27.403Z,10.1
2018-04-11T06:17:29.113Z,10.2
2018-04-11T06:18:30.796Z,10.2
2018-04-11T06:19:32.502Z,10.3
2018-04-11T06:20:34.185Z,10.3
2018-04-11T06:21:35.883Z,10.4
2018-04-11T06:22:37.618Z,10.5
2018-04-11T06:23:39.342Z,10.6
2018-04-11T06:24:41.202Z,10.6
2018-04-11T06:25:42.982Z,10.7
2018-04-11T06:26:44.796Z,10.7
2018-04-11T06:27:46.547Z,10.8
2018-04-11T06:28:48.410Z,10.9
2018-04-11T06:29:50.245Z,10.9
2018-04-11T06:30:52.106Z,11.0
2018-04-11T06:31:53.946Z,11.0
2018-04-11T06:32:55.657Z,11.1
2018-04-11T06:33:57.513Z,11.1
2018-04-11T06:34:59.430Z,11.1
2018-04-11T06:36:01.210Z,11.2
2018-04-11T06:37:03.105Z,11.3
2018-04-11T06:38:04.989Z,11.2
2018-04-11T06:39:07.019Z,11.2
2018-04-11T06:40:09.138Z,11.4
2018-04-11T06:41:11.112Z,11.4
2018-04-11T06:42:13.086Z,11.6
2018-04-11T06:43:15.000Z,11.7
2018-04-11T06:44:16.787Z,11.8
2018-04-11T06:45:18.683Z,11.7
2018-04-11T06:46:20.536Z,11.6
2018-04-11T06:47:22.299Z,11.7
2018-04-11T06:48:24.113Z,11.6
2018-04-11T06:49:25.824Z,11.7
2018-04-11T06:50:27.710Z,11.6
2018-04-11T06:51:29.650Z,11.6
2018-04-11T06:52:31.518Z,11.4
2018-04-11T06:53:33.373Z,11.7
2018-04-11T06:54:35.745Z,11.7
2018-04-11T06:55:37.763Z,11.7
2018-04-11T06:56:39.844Z,11.7
2018-04-11T06:57:42.041Z,11.8
2018-04-11T06:58:44.151Z,11.9
2018-04-11T06:59:46.112Z,11.8
2018-04-11T07:00:47.811Z,11.9
2018-04-11T07:01:49.471Z,11.9
2018-04-11T07:02:51.188Z,11.9
2018-04-11T07:03:52.850Z,11.9
2018-04-11T07:04:54.535Z,11.8
2018-04-11T07:05:56.197Z,11.8
2018-04-11T07:06:57.860Z,11.7
2018-04-11T07:07:59.558Z,11.9
2018-04-11T07:09:01.268Z,11.9
2018-04-11T07:10:02.920Z,11.8
2018-04-11T07:11:04.607Z,11.9
2018-04-11T07:12:06.257Z,11.9
2018-04-11T07:13:07.930Z,11.9
2018-04-11T07:14:09.638Z,11.7
2018-04-11T07:15:11.295Z,11.8
2018-04-11T07:16:12.990Z,11.9
2018-04-11T07:17:14.653Z,11.7
2018-04-11T07:18:16.317Z,11.6
2018-04-11T07:19:17.973Z,11.6
2018-04-11T07:20:19.643Z,11.7
2018-04-11T07:21:21.314Z,11.8
2018-04-11T07:22:22.968Z,11.7
2018-04-11T07:23:24.619Z,11.8
2018-04-11T07:24:26.296Z,11.8
2018-04-11T07:25:27.959Z,11.7
2018-04-11T07:26:29.619Z,11.7
2018-04-11T07:27:31.295Z,11.8
2018-04-11T07:28:32.959Z,11.8
2018-04-11T07:29:34.624Z,11.7
2018-04-11T07:30:36.286Z,11.7
2018-04-11T07:31:37.993Z,11.7
2018-04-11T07:32:39.660Z,11.6
2018-04-11T07:33:41.322Z,11.7
2018-04-11T07:34:42.995Z,11.8
2018-04-11T07:35:44.664Z,11.8
2018-04-11T07:36:46.322Z,11.7
2018-04-11T07:37:47.994Z,11.7
2018-04-11T07:38:49.647Z,11.7
2018-04-11T07:39:51.311Z,11.7
2018-04-11T07:40:52.967Z,11.7
2018-04-11T07:41:54.635Z,11.7
2018-04-11T07:42:56.304Z,11.6
2018-04-11T07:43:57.969Z,11.7
2018-04-11T07:44:59.625Z,11.7
2018-04-11T07:46:01.356Z,11.5
2018-04-11T07:47:02.970Z,11.5
2018-04-11T07:48:04.636Z,11.5
2018-04-11T07:49:06.301Z,11.4
2018-04-11T07:50:07.956Z,11.3
2018-04-11T07:51:09.679Z,11.3
2018-04-11T07:52:11.354Z,11.4
2018-04-11T07:53:13.012Z,11.4
2018-04-11T07:54:14.671Z,11.4
2018-04-11T07:55:16.338Z,11.3
2018-04-11T07:56:18.014Z,11.4
2018-04-11T07:57:19.663Z,11.5
2018-04-11T07:58:21.318Z,11.3
2018-04-11T07:59:22.983Z,11.3
2018-04-11T08:00:24.644Z,11.4
2018-04-11T08:01:26.309Z,11.4
2018-04-11T08:02:27.968Z,11.3
2018-04-11T08:03:29.642Z,11.1
2018-04-11T08:04:31.288Z,11.1
2018-04-11T08:05:32.952Z,11.2
2018-04-11T08:06:34.612Z,11.1
2018-04-11T08:07:36.277Z,11.1
2018-04-11T08:08:38.029Z,11.0
2018-04-11T08:09:39.569Z,11.0
2018-04-11T08:10:41.234Z,11.0
2018-04-11T08:11:42.910Z,10.9
2018-04-11T08:12:44.571Z,10.9
2018-04-11T08:13:46.232Z,10.8
2018-04-11T08:14:47.922Z,10.7
2018-04-11T08:15:49.580Z,10.7
2018-04-11T08:16:51.235Z,10.6
2018-04-11T08:17:52.889Z,10.7
2018-04-11T08:18:54.560Z,10.6
2018-04-11T08:19:56.211Z,10.5
2018-04-11T08:20:57.859Z,10.3
2018-04-11T08:21:59.524Z,10.3
2018-04-11T08:23:01.181Z,10.3
2018-04-11T08:24:02.847Z,10.3
2018-04-11T08:25:04.513Z,10.3
2018-04-11T08:26:06.182Z,10.3
2018-04-11T08:27:07.845Z,10.2
2018-04-11T08:28:09.511Z,10.3
2018-04-11T08:29:11.169Z,10.2
2018-04-11T08:30:12.844Z,10.0
2018-04-11T08:31:14.504Z,10.0
2018-04-11T08:32:16.176Z,10.0
2018-04-11T08:33:17.834Z,10.0
2018-04-11T08:34:19.500Z,10.1
2018-04-11T08:35:21.158Z,10.1
2018-04-11T08:36:22.861Z,10.1
2018-04-11T08:37:24.511Z,10.0
2018-04-11T08:38:26.192Z,10.0
2018-04-11T08:39:27.840Z,10.1
2018-04-11T08:40:29.521Z,10.1
2018-04-11T08:41:31.180Z,10.2
2018-04-11T08:42:32.831Z,10.2
2018-04-11T08:43:34.509Z,10.3
2018-04-11T08:44:36.167Z,10.3
2018-04-11T08:45:37.823Z,10.3
2018-04-11T08:46:39.491Z,10.4
2018-04-11T08:47:41.156Z,10.3
2018-04-11T08:48:42.821Z,10.2
2018-04-11T08:49:44.486Z,10.3
2018-04-11T08:50:46.149Z,10.3
2018-04-11T08:51:47.848Z,10.3
2018-04-11T08:52:49.519Z,10.4
2018-04-11T08:53:51.178Z,10.4
2018-04-11T08:54:52.880Z,10.3
2018-04-11T08:55:54.539Z,10.3
2018-04-11T08:56:56.199Z,10.4
2018-04-11T08:57:57.855Z,10.4
2018-04-11T08:58:59.520Z,10.4
2018-04-11T09:00:01.184Z,10.5
2018-04-11T09:01:02.851Z,10.5
2018-04-11T09:02:04.513Z,10.6
2018-04-11T09:03:06.169Z,10.5
2018-04-11T09:04:07.834Z,10.4
2018-04-11T09:05:09.493Z,10.4
2018-04-11T09:06:11.144Z,10.4
2018-04-11T09:07:12.806Z,10.5
2018-04-11T09:08:14.472Z,10.5
2018-04-11T09:09:16.137Z,10.6
2018-04-11T09:10:17.798Z,10.4
2018-04-11T09:11:19.456Z,10.3
2018-04-11T09:12:21.116Z,10.3
2018-04-11T09:13:22.793Z,10.3
2018-04-11T09:14:24.462Z,10.3
2018-04-11T09:15:26.143Z,10.4
2018-04-11T09:16:27.803Z,10.5
2018-04-11T09:17:29.455Z,10.5
2018-04-11T09:18:31.123Z,10.6
2018-04-11T09:19:32.779Z,10.5
2018-04-11T09:20:34.449Z,10.4
2018-04-11T09:21:36.119Z,10.5
2018-04-11T09:22:37.789Z,10.5
2018-04-11T09:23:39.454Z,10.5
2018-04-11T09:24:41.109Z,10.6
2018-04-11T09:25:42.767Z,10.5
2018-04-11T09:26:44.429Z,10.5
2018-04-11T09:27:46.090Z,10.5
2018-04-11T09:28:47.782Z,10.7
2018-04-11T09:29:49.440Z,10.6
2018-04-11T09:30:51.124Z,10.6
2018-04-11T09:31:52.831Z,10.7
2018-04-11T09:32:54.452Z,10.6
2018-04-11T09:33:56.149Z,10.6
2018-04-11T09:34:57.829Z,10.6
2018-04-11T09:35:59.515Z,10.6
2018-04-11T09:37:01.148Z,10.9
2018-04-11T09:38:02.835Z,10.7
2018-04-11T09:39:04.501Z,10.7
2018-04-11T09:40:06.188Z,10.5
2018-04-11T09:41:07.855Z,10.6
2018-04-11T09:42:09.520Z,10.5
2018-04-11T09:43:11.188Z,10.7
2018-04-11T09:44:12.963Z,10.7
2018-04-11T09:45:14.620Z,10.9
2018-04-11T09:46:16.284Z,11.0
2018-04-11T09:47:17.948Z,11.1
2018-04-11T09:48:19.611Z,11.1
2018-04-11T09:49:21.272Z,11.2
2018-04-11T09:50:22.968Z,11.1
2018-04-11T09:51:24.626Z,11.1
2018-04-11T09:52:26.295Z,11.2
2018-04-11T09:53:27.957Z,11.5
2018-04-11T09:54:29.618Z,11.4
2018-04-11T09:55:31.279Z,11.7
2018-04-11T10:01:51.889Z,11.7
2018-04-11T10:02:53.553Z,11.4
2018-04-11T10:04:45.460Z,11.9
2018-04-11T10:05:47.144Z,12.2
2018-04-11T10:07:39.029Z,12.2
2018-04-11T10:08:40.693Z,12.0
2018-04-11T10:09:42.347Z,12.2
2018-04-11T10:10:44.013Z,12.1
2018-04-11T10:11:45.673Z,12.3
2018-04-11T10:12:47.372Z,12.4
2018-04-11T10:13:49.038Z,12.5
2018-04-11T10:14:50.700Z,12.3
2018-04-11T10:15:52.352Z,12.2
2018-04-11T10:16:54.026Z,11.9
2018-04-11T10:17:55.687Z,11.8
2018-04-11T10:18:57.364Z,12.0
2018-04-11T10:19:59.025Z,12.2
2018-04-11T10:21:00.695Z,12.4
2018-04-11T10:22:02.356Z,12.8
2018-04-11T10:23:04.018Z,13.2
2018-04-11T10:24:05.687Z,13.5
2018-04-11T10:25:07.356Z,13.7
2018-04-11T10:26:09.017Z,13.6
2018-04-11T10:27:10.687Z,13.2
2018-04-11T10:28:12.340Z,12.5
2018-04-11T10:29:14.006Z,12.4
2018-04-11T10:30:15.664Z,12.3
2018-04-11T10:31:17.327Z,12.2
2018-04-11T10:32:19.062Z,12.1
2018-04-11T10:33:20.721Z,12.1
2018-04-11T10:34:22.383Z,12.0
2018-04-11T10:35:24.054Z,12.0
2018-04-11T10:36:25.724Z,11.8
2018-04-11T10:37:27.400Z,11.4
2018-04-11T10:38:29.062Z,11.5
2018-04-11T10:39:30.715Z,11.4
2018-04-11T10:40:32.395Z,11.4
2018-04-11T10:41:34.057Z,11.3
2018-04-11T10:42:35.719Z,11.1
2018-04-11T10:43:37.400Z,11.2
2018-04-11T10:44:39.120Z,11.2
2018-04-11T10:45:40.775Z,11.3
2018-04-11T10:46:42.446Z,11.1
2018-04-11T10:47:44.111Z,11.3
2018-04-11T10:48:45.774Z,11.3
2018-04-11T10:49:47.474Z,11.4
2018-04-11T10:50:49.125Z,11.4
2018-04-11T10:51:50.786Z,11.5
2018-04-11T10:52:52.446Z,11.5
2018-04-11T10:53:54.126Z,11.4
2018-04-11T10:54:55.832Z,11.3
2018-04-11T10:55:57.490Z,11.4
2018-04-11T10:56:59.148Z,11.6
2018-04-11T10:58:00.822Z,11.7
2018-04-11T10:59:02.495Z,11.7
2018-04-11T11:00:04.156Z,11.8
2018-04-11T11:01:05.817Z,11.6
2018-04-11T11:02:07.478Z,11.5
2018-04-11T11:03:09.135Z,11.6
2018-04-11T11:04:10.801Z,11.6
2018-04-11T11:05:12.462Z,11.8
2018-04-11T11:06:14.129Z,11.9
2018-04-11T11:07:15.791Z,12.0
2018-04-11T11:08:17.453Z,11.9
2018-04-11T11:09:19.118Z,12.0
2018-04-11T11:10:20.777Z,12.1
2018-04-11T11:11:22.441Z,11.9
2018-04-11T11:12:24.116Z,11.8
2018-04-11T11:13:25.792Z,11.8
2018-04-11T11:14:27.460Z,11.9
2018-04-11T11:15:29.110Z,11.7
2018-04-11T11:16:30.804Z,11.5
2018-04-11T11:17:32.460Z,11.4
2018-04-11T11:18:34.162Z,11.3
2018-04-11T11:19:35.835Z,11.3
2018-04-11T11:20:37.534Z,11.5
2018-04-11T11:21:39.189Z,11.4
2018-04-11T11:22:40.865Z,11.7
2018-04-11T11:23:42.626Z,11.5
2018-04-11T11:24:44.296Z,11.5
2018-04-11T11:25:45.967Z,11.4
2018-04-11T11:26:47.672Z,11.4
2018-04-11T11:27:49.329Z,11.4
2018-04-11T11:28:50.987Z,11.5
2018-04-11T11:29:52.652Z,11.5
2018-04-11T11:30:54.315Z,11.2
2018-04-11T11:31:55.998Z,11.2
2018-04-11T11:32:57.681Z,11.2
2018-04-11T11:33:59.343Z,11.4
2018-04-11T11:35:01.025Z,11.2
2018-04-11T11:36:02.676Z,11.2
2018-04-11T11:37:04.341Z,11.3
2018-04-11T11:38:06.009Z,11.4
2018-04-11T11:39:07.678Z,11.5
2018-04-11T11:40:09.346Z,11.7
2018-04-11T11:41:11.002Z,11.7
2018-04-11T11:42:12.664Z,11.5
2018-04-11T11:43:14.331Z,11.5
2018-04-11T11:44:15.996Z,11.6
2018-04-11T11:45:17.667Z,11.5
2018-04-11T11:46:19.334Z,11.6
2018-04-11T11:47:21.004Z,11.7
2018-04-11T11:48:22.673Z,11.6
2018-04-11T11:49:24.327Z,11.5
2018-04-11T11:50:26.005Z,11.4
2018-04-11T11:51:27.662Z,11.4
2018-04-11T11:52:29.318Z,11.1
2018-04-11T11:53:31.022Z,11.1
2018-04-11T11:54:32.680Z,11.0
2018-04-11T11:55:34.343Z,10.9
2018-04-11T11:56:36.012Z,11.0
2018-04-11T11:57:37.675Z,11.0
2018-04-11T11:58:39.343Z,11.2
2018-04-11T11:59:41.005Z,11.4
2018-04-11T12:00:42.660Z,11.4
2018-04-11T12:01:44.367Z,11.3
2018-04-11T12:02:46.044Z,11.2
2018-04-11T12:03:47.756Z,11.2
2018-04-11T12:04:49.474Z,11.1
2018-04-11T12:05:51.141Z,11.1
2018-04-11T12:06:52.973Z,11.2
2018-04-11T12:07:55.079Z,11.1
2018-04-11T12:08:56.751Z,11.1
2018-04-11T12:09:58.443Z,11.1
2018-04-11T12:11:00.115Z,11.0
2018-04-11T12:12:01.776Z,10.9
2018-04-11T12:13:03.437Z,10.9
2018-04-11T12:14:05.103Z,11.0
2018-04-11T12:15:06.762Z,11.0
2018-04-11T12:16:08.428Z,11.2
2018-04-11T12:17:10.110Z,11.2
2018-04-11T12:18:11.772Z,11.2
2018-04-11T12:19:13.432Z,11.2
2018-04-11T12:20:15.088Z,11.3
2018-04-11T12:21:16.760Z,11.2
2018-04-11T12:22:18.430Z,11.2
2018-04-11T12:23:20.942Z,11.0
2018-04-11T12:24:22.613Z,11.1
2018-04-11T12:25:24.277Z,11.1
2018-04-11T12:26:25.937Z,11.2
2018-04-11T12:27:27.606Z,11.4
2018-04-11T12:28:29.263Z,11.3
2018-04-11T12:29:30.926Z,11.2
2018-04-11T12:30:32.580Z,11.1
2018-04-11T12:31:34.255Z,11.4
2018-04-11T12:32:35.913Z,11.5
2018-04-11T12:33:37.576Z,11.5
2018-04-11T12:34:39.243Z,11.5
2018-04-11T12:35:40.887Z,11.5
2018-04-11T12:36:42.557Z,11.5
2018-04-11T12:37:44.219Z,11.5
2018-04-11T12:38:45.896Z,11.7
2018-04-11T12:39:47.579Z,11.7
2018-04-11T12:40:49.238Z,11.5
2018-04-11T12:41:50.903Z,11.5
2018-04-11T12:42:52.569Z,11.5
2018-04-11T12:43:54.234Z,11.5
2018-04-11T12:44:55.900Z,11.6
2018-04-11T12:45:57.565Z,11.5
2018-04-11T12:46:59.226Z,11.7
2018-04-11T12:48:00.892Z,11.9
2018-04-11T12:49:02.552Z,12.1
2018-04-11T12:50:04.222Z,11.9
2018-04-11T12:51:05.891Z,11.9
2018-04-11T12:52:07.562Z,12.0
2018-04-11T12:53:09.236Z,12.1
2018-04-11T12:54:10.902Z,12.1
2018-04-11T12:55:12.571Z,12.0
2018-04-11T12:56:14.224Z,12.0
2018-04-11T12:57:15.880Z,12.1
2018-04-11T12:58:17.570Z,12.1
2018-04-11T12:59:19.232Z,12.3
2018-04-11T13:00:20.891Z,12.2
2018-04-11T13:01:22.609Z,12.5
2018-04-11T13:02:24.256Z,12.5
2018-04-11T13:03:25.917Z,12.6
2018-04-11T13:04:27.589Z,12.8
2018-04-11T13:05:29.241Z,12.5
2018-04-11T13:06:30.910Z,12.5
2018-04-11T13:07:32.572Z,12.6
2018-04-11T13:08:34.237Z,12.8
2018-04-11T13:09:35.895Z,12.5
2018-04-11T13:10:37.559Z,12.7
2018-04-11T13:11:39.289Z,12.6
2018-04-11T13:12:41.005Z,12.7
2018-04-11T13:13:42.664Z,12.6
2018-04-11T13:14:44.341Z,12.5
2018-04-11T13:15:46.004Z,12.5
2018-04-11T13:16:47.692Z,12.5
2018-04-11T13:17:49.354Z,12.5
2018-04-11T13:18:51.031Z,12.5
2018-04-11T13:19:52.711Z,12.5
2018-04-11T13:20:54.397Z,12.5
2018-04-11T13:21:56.079Z,12.5
2018-04-11T13:22:57.738Z,12.4
2018-04-11T13:23:59.412Z,12.3
2018-04-11T13:25:01.105Z,12.2
2018-04-11T13:26:02.796Z,12.3
2018-04-11T13:27:04.470Z,12.4
2018-04-11T13:28:06.128Z,12.5
2018-04-11T13:29:07.862Z,12.5
2018-04-11T13:30:09.536Z,12.5
2018-04-11T13:31:11.200Z,12.5
2018-04-11T13:32:12.863Z,12.4
2018-04-11T13:33:14.532Z,12.4
2018-04-11T13:34:16.195Z,12.2
2018-04-11T13:35:17.867Z,12.4
2018-04-11T13:36:19.529Z,12.5
2018-04-11T13:37:21.194Z,12.4
2018-04-11T13:38:22.852Z,12.5
2018-04-11T13:39:24.516Z,12.5
2018-04-11T13:40:26.185Z,12.5
2018-04-11T13:41:27.866Z,12.2
2018-04-11T13:42:29.518Z,12.2
2018-04-11T13:43:31.198Z,12.2
2018-04-11T13:44:32.862Z,12.1
2018-04-11T13:45:34.523Z,12.2
2018-04-11T13:46:36.192Z,12.7
2018-04-11T13:47:37.861Z,12.5
2018-04-11T13:48:39.527Z,12.8
2018-04-11T13:49:41.253Z,13.0
2018-04-11T13:50:42.894Z,13.5
2018-04-11T13:51:44.565Z,13.7
2018-04-11T13:52:46.261Z,13.5
2018-04-11T13:53:47.953Z,13.7
2018-04-11T13:54:49.622Z,14.1
2018-04-11T14:01:26.142Z,13.6
2018-04-11T14:02:27.937Z,13.6
2018-04-11T14:03:29.584Z,14.0
2018-04-11T14:04:31.240Z,14.2
2018-04-11T14:05:32.901Z,14.1
2018-04-11T14:06:34.564Z,14.1
2018-04-11T14:07:36.235Z,14.1
2018-04-11T14:08:37.914Z,14.0
2018-04-11T14:09:39.575Z,14.3
2018-04-11T14:10:41.235Z,14.7
2018-04-11T14:11:42.903Z,15.2
2018-04-11T14:12:44.560Z,15.4
2018-04-11T14:13:46.225Z,15.8
2018-04-11T14:14:47.920Z,16.3
2018-04-11T14:15:49.596Z,16.5
2018-04-11T14:16:51.272Z,16.3